createdAt,value
2023-03-27T00:00:25.512Z,87.38
2023-03-27T00:01:27.926Z,87.20
2023-03-27T00:02:29.919Z,87.20
2023-03-27T00:03:33.890Z,87.26
2023-03-27T00:04:36.172Z,87.21
2023-03-27T00:05:39.443Z,87.00
2023-03-27T00:06:41.515Z,86.95
2023-03-27T00:07:43.597Z,87.03
2023-03-27T00:08:48.502Z,87.13
2023-03-27T00:09:50.406Z,87.21
2023-03-27T00:10:53.561Z,87.17
2023-03-27T00:11:55.838Z,87.30
2023-03-27T00:12:58.129Z,87.42
2023-03-27T00:14:00.443Z,87.43
2023-03-27T00:15:02.610Z,87.56
2023-03-27T00:16:05.809Z,87.75
2023-03-27T00:17:08.275Z,87.87
2023-03-27T00:18:10.211Z,88.15
2023-03-27T00:19:12.272Z,88.54
2023-03-27T00:20:16.792Z,88.67
2023-03-27T00:21:20.714Z,89.04
2023-03-27T00:22:22.628Z,88.71
2023-03-27T00:23:27.080Z,88.71
2023-03-27T00:24:28.997Z,88.62
2023-03-27T00:25:31.997Z,88.62
2023-03-27T00:26:34.311Z,88.60
2023-03-27T00:27:37.453Z,88.70
2023-03-27T00:28:39.526Z,88.73
2023-03-27T00:29:41.459Z,89.01
2023-03-27T00:30:46.974Z,89.46
2023-03-27T00:31:48.979Z,89.45
2023-03-27T00:32:52.257Z,89.26
2023-03-27T00:33:54.373Z,89.15
2023-03-27T00:34:56.356Z,89.18
2023-03-27T00:35:58.301Z,88.96
2023-03-27T00:37:00.936Z,89.07
2023-03-27T00:38:03.223Z,88.93
2023-03-27T00:39:05.107Z,88.99
2023-03-27T00:40:10.261Z,88.83
2023-03-27T00:41:12.481Z,89.01
2023-03-27T00:42:18.337Z,88.97
2023-03-27T00:43:28.210Z,89.09
2023-03-27T00:44:32.204Z,89.03
2023-03-27T00:45:36.209Z,88.96
2023-03-27T00:46:42.694Z,89.77
2023-03-27T00:47:48.181Z,89.66
2023-03-27T00:48:52.945Z,89.35
2023-03-27T00:49:54.999Z,90.38
2023-03-27T00:50:59.383Z,90.54
2023-03-27T00:52:04.114Z,90.38
2023-03-27T00:54:21.353Z,92.42
2023-03-27T00:55:27.121Z,92.00
2023-03-27T00:56:30.177Z,91.33
2023-03-27T00:57:34.489Z,90.73
2023-03-27T00:58:40.188Z,90.77
2023-03-27T00:59:46.248Z,90.91
2023-03-27T01:00:53.633Z,90.66
2023-03-27T01:01:58.327Z,90.57
2023-03-27T01:03:02.533Z,90.44
2023-03-27T01:04:08.595Z,90.23
2023-03-27T01:05:14.947Z,90.53
2023-03-27T01:06:18.498Z,90.48
2023-03-27T01:07:21.004Z,90.16
2023-03-27T01:08:24.908Z,89.89
2023-03-27T01:09:26.813Z,91.27
2023-03-27T01:10:50.341Z,91.19
2023-03-27T01:12:02.307Z,91.56
2023-03-27T01:13:08.000Z,90.89
2023-03-27T01:15:52.766Z,90.47
2023-03-27T01:17:12.290Z,90.37
2023-03-27T01:18:23.618Z,90.29
2023-03-27T01:19:56.846Z,90.62
2023-03-27T01:21:15.274Z,90.60
2023-03-27T01:22:33.393Z,90.30
2023-03-27T01:24:11.375Z,90.30
2023-03-27T01:25:21.229Z,90.32
2023-03-27T01:26:35.971Z,90.42
2023-03-27T01:28:08.708Z,90.40
2023-03-27T01:30:44.772Z,90.60
2023-03-27T01:32:10.038Z,90.45
2023-03-27T01:33:49.753Z,90.40
2023-03-27T01:35:14.302Z,90.47
2023-03-27T01:36:41.179Z,90.42
2023-03-27T01:37:59.939Z,91.30
2023-03-27T01:39:39.325Z,91.42
2023-03-27T01:40:48.381Z,91.59
2023-03-27T01:42:02.696Z,92.22
2023-03-27T01:44:36.445Z,91.77
2023-03-27T01:47:15.583Z,91.84
2023-03-27T01:48:29.894Z,91.73
2023-03-27T01:49:37.159Z,92.14
2023-03-27T01:50:52.076Z,92.42
2023-03-27T01:53:36.428Z,92.35
2023-03-27T01:54:45.103Z,92.19
2023-03-27T01:55:51.581Z,92.32
2023-03-27T01:57:06.203Z,92.29
2023-03-27T01:58:11.875Z,92.23
2023-03-27T01:59:16.215Z,92.16
2023-03-27T02:00:22.844Z,92.01
2023-03-27T02:01:28.847Z,92.10
2023-03-27T02:02:33.397Z,92.15
2023-03-27T02:03:39.168Z,92.23
2023-03-27T02:06:00.936Z,92.46
2023-03-27T02:07:06.647Z,92.55
2023-03-27T02:08:21.058Z,92.67
2023-03-27T02:10:40.992Z,92.82
2023-03-27T02:13:12.508Z,93.07
2023-03-27T02:15:37.086Z,93.62
2023-03-27T02:16:42.959Z,93.64
2023-03-27T02:19:04.883Z,93.29
2023-03-27T02:20:12.059Z,93.77
2023-03-27T02:21:15.100Z,93.77
2023-03-27T02:22:18.150Z,94.50
2023-03-27T02:23:20.022Z,93.99
2023-03-27T02:24:21.903Z,93.71
2023-03-27T02:25:36.480Z,93.48
2023-03-27T02:26:38.679Z,93.87
2023-03-27T02:27:44.557Z,93.71
2023-03-27T02:28:53.219Z,93.52
2023-03-27T02:30:01.667Z,93.29
2023-03-27T02:31:33.485Z,93.10
2023-03-27T02:32:33.432Z,93.38
2023-03-27T02:33:50.506Z,93.17
2023-03-27T02:35:05.411Z,93.06
2023-03-27T02:36:26.139Z,92.58
2023-03-27T02:37:33.147Z,93.38
2023-03-27T02:38:45.685Z,93.10
2023-03-27T02:40:00.843Z,93.46
2023-03-27T02:41:09.691Z,93.35
2023-03-27T02:42:32.095Z,92.98
2023-03-27T02:43:37.787Z,92.98
2023-03-27T02:44:52.227Z,92.79
2023-03-27T02:45:57.947Z,92.70
2023-03-27T02:47:13.094Z,92.72
2023-03-27T02:48:21.605Z,92.95
2023-03-27T02:49:27.257Z,92.82
2023-03-27T02:50:43.247Z,92.84
2023-03-27T02:51:54.793Z,92.66
2023-03-27T02:53:02.497Z,92.80
2023-03-27T02:54:08.229Z,93.17
2023-03-27T02:55:14.699Z,93.40
2023-03-27T02:56:19.519Z,93.44
2023-03-27T02:57:25.955Z,93.54
2023-03-27T02:59:53.021Z,93.65
2023-03-27T03:00:58.949Z,94.00
2023-03-27T03:02:05.442Z,93.67
2023-03-27T03:03:15.038Z,94.24
2023-03-27T03:04:20.916Z,93.84
2023-03-27T03:05:25.030Z,93.86
2023-03-27T03:06:27.502Z,94.71
2023-03-27T03:07:30.107Z,94.68
2023-03-27T03:08:35.528Z,94.42
2023-03-27T03:09:40.389Z,94.47
2023-03-27T03:10:45.470Z,94.26
2023-03-27T03:11:54.841Z,94.21
2023-03-27T03:12:56.797Z,95.36
2023-03-27T03:13:58.730Z,95.36
2023-03-27T03:15:00.629Z,95.17
2023-03-27T03:16:03.233Z,94.83
2023-03-27T03:17:05.432Z,94.84
2023-03-27T03:18:08.373Z,94.82
2023-03-27T03:19:10.513Z,94.46
2023-03-27T03:20:13.465Z,94.14
2023-03-27T03:21:15.354Z,94.95
2023-03-27T03:22:17.246Z,95.01
2023-03-27T03:23:23.284Z,94.93
2023-03-27T03:24:25.229Z,94.92
2023-03-27T03:25:27.341Z,95.40
2023-03-27T03:26:29.380Z,95.46
2023-03-27T03:27:33.023Z,94.95
2023-03-27T03:28:34.965Z,94.59
2023-03-27T03:29:36.867Z,94.90
2023-03-27T03:30:39.445Z,95.36
2023-03-27T03:31:41.775Z,95.23
2023-03-27T03:32:43.705Z,95.59
2023-03-27T03:33:45.624Z,95.42
2023-03-27T03:34:47.508Z,95.82
2023-03-27T03:35:51.346Z,95.83
2023-03-27T03:36:54.220Z,95.34
2023-03-27T03:37:56.093Z,95.10
2023-03-27T03:38:57.962Z,95.18
2023-03-27T03:39:59.849Z,95.08
2023-03-27T03:41:01.750Z,95.13
2023-03-27T03:42:04.636Z,95.44
2023-03-27T03:43:06.510Z,95.23
2023-03-27T03:44:08.805Z,95.01
2023-03-27T03:45:10.882Z,94.93
2023-03-27T03:46:13.753Z,94.91
2023-03-27T03:47:16.080Z,94.73
2023-03-27T03:48:19.497Z,94.42
2023-03-27T03:49:21.366Z,94.23
2023-03-27T03:50:23.684Z,94.01
2023-03-27T03:51:28.298Z,93.75
2023-03-27T03:52:30.216Z,93.55
2023-03-27T03:53:32.324Z,94.21
2023-03-27T03:54:34.206Z,94.68
2023-03-27T03:55:36.261Z,94.61
2023-03-27T03:56:38.501Z,94.24
2023-03-27T03:57:45.409Z,94.72
2023-03-27T03:58:48.086Z,94.79
2023-03-27T03:59:51.945Z,95.14
2023-03-27T04:00:54.079Z,94.77
2023-03-27T04:01:56.840Z,94.75
2023-03-27T04:02:58.829Z,94.60
2023-03-27T04:04:02.425Z,94.73
2023-03-27T04:05:08.935Z,94.52
2023-03-27T04:06:09.214Z,94.26
2023-03-27T04:07:11.121Z,93.93
2023-03-27T04:08:14.202Z,93.87
2023-03-27T04:09:16.076Z,93.71
2023-03-27T04:10:18.231Z,93.62
2023-03-27T04:11:23.071Z,93.45
2023-03-27T04:12:26.631Z,93.31
2023-03-27T04:13:29.087Z,93.34
2023-03-27T04:14:31.087Z,93.32
2023-03-27T04:15:32.996Z,93.20
2023-03-27T04:16:35.205Z,93.26
2023-03-27T04:17:37.271Z,93.28
2023-03-27T04:18:40.927Z,93.26
2023-03-27T04:19:44.706Z,93.06
2023-03-27T04:20:47.412Z,92.93
2023-03-27T04:21:51.378Z,92.68
2023-03-27T04:22:54.370Z,92.73
2023-03-27T04:23:57.062Z,92.71
2023-03-27T04:24:59.091Z,92.48
2023-03-27T04:26:01.471Z,92.51
2023-03-27T04:27:04.667Z,92.43
2023-03-27T04:28:06.540Z,92.48
2023-03-27T04:29:08.482Z,92.78
2023-03-27T04:30:13.692Z,92.83
2023-03-27T04:31:15.799Z,92.95
2023-03-27T04:32:17.912Z,92.91
2023-03-27T04:33:19.765Z,93.12
2023-03-27T04:34:23.893Z,92.99
2023-03-27T04:35:25.973Z,92.99
2023-03-27T04:36:29.556Z,92.86
2023-03-27T04:37:32.995Z,92.72
2023-03-27T04:38:37.139Z,92.56
2023-03-27T04:39:40.224Z,92.22
2023-03-27T04:40:43.873Z,92.17
2023-03-27T04:41:47.505Z,92.19
2023-03-27T04:42:50.007Z,92.29
2023-03-27T04:43:51.883Z,92.42
2023-03-27T04:44:54.961Z,92.45
2023-03-27T04:45:57.457Z,92.34
2023-03-27T04:46:59.559Z,92.23
2023-03-27T04:48:02.711Z,92.26
2023-03-27T04:49:04.821Z,92.01
2023-03-27T04:50:08.478Z,91.97
2023-03-27T04:51:10.463Z,91.84
2023-03-27T04:52:14.804Z,91.94
2023-03-27T04:53:18.129Z,91.67
2023-03-27T04:54:23.454Z,92.45
2023-03-27T04:55:26.090Z,92.45
2023-03-27T04:56:31.052Z,92.06
2023-03-27T04:57:33.742Z,91.84
2023-03-27T04:58:37.486Z,91.50
2023-03-27T04:59:39.761Z,91.23
2023-03-27T05:00:42.149Z,90.90
2023-03-27T05:01:44.923Z,90.50
2023-03-27T05:02:48.388Z,90.44
2023-03-27T05:03:51.334Z,90.42
2023-03-27T05:04:55.032Z,90.24
2023-03-27T05:05:57.189Z,90.27
2023-03-27T05:06:59.889Z,91.18
2023-03-27T05:08:02.192Z,90.77
2023-03-27T05:09:04.190Z,91.03
2023-03-27T05:10:07.886Z,90.78
2023-03-27T05:11:09.771Z,90.39
2023-03-27T05:12:11.638Z,89.92
2023-03-27T05:13:13.888Z,89.51
2023-03-27T05:14:17.577Z,89.63
2023-03-27T05:15:20.919Z,89.59
2023-03-27T05:16:23.142Z,89.18
2023-03-27T05:17:25.288Z,88.87
2023-03-27T05:18:28.765Z,88.71
2023-03-27T05:19:30.682Z,88.79
2023-03-27T05:20:32.953Z,88.92
2023-03-27T05:21:35.340Z,88.44
2023-03-27T05:22:38.407Z,88.60
2023-03-27T05:23:40.383Z,88.92
2023-03-27T05:24:42.365Z,88.41
2023-03-27T05:25:44.648Z,87.82
2023-03-27T05:26:47.468Z,87.69
2023-03-27T05:27:52.224Z,87.48
2023-03-27T05:28:54.812Z,87.56
2023-03-27T05:29:56.682Z,87.52
2023-03-27T05:30:58.939Z,87.08
2023-03-27T05:32:02.800Z,86.56
2023-03-27T05:33:06.874Z,86.57
2023-03-27T05:34:08.942Z,86.16
2023-03-27T05:35:10.871Z,85.83
2023-03-27T05:36:14.579Z,85.83
2023-03-27T05:37:17.222Z,85.35
2023-03-27T05:38:19.303Z,85.25
2023-03-27T05:39:21.313Z,84.93
2023-03-27T05:40:25.650Z,84.40
2023-03-27T05:41:28.145Z,84.52
2023-03-27T05:42:30.031Z,83.75
2023-03-27T05:43:33.264Z,83.43
2023-03-27T05:44:35.233Z,82.63
2023-03-27T05:45:37.166Z,82.06
2023-03-27T05:46:39.461Z,81.38
2023-03-27T05:47:49.972Z,81.10
2023-03-27T05:48:53.249Z,80.73
2023-03-27T05:49:55.133Z,80.40
2023-03-27T05:50:57.527Z,79.81
2023-03-27T05:51:59.764Z,79.21
2023-03-27T05:53:04.534Z,78.56
2023-03-27T05:54:06.407Z,78.93
2023-03-27T05:55:09.613Z,78.90
2023-03-27T05:56:14.525Z,78.11
2023-03-27T05:57:16.472Z,77.20
2023-03-27T05:58:18.621Z,76.65
2023-03-27T05:59:20.499Z,76.01
2023-03-27T06:00:24.572Z,76.03
2023-03-27T06:01:26.687Z,75.30
2023-03-27T06:02:28.665Z,74.74
2023-03-27T06:03:33.342Z,75.20
2023-03-27T06:04:36.684Z,74.60
2023-03-27T06:05:40.103Z,75.38
2023-03-27T06:06:42.290Z,75.46
2023-03-27T06:07:45.378Z,74.59
2023-03-27T06:08:47.493Z,73.79
2023-03-27T06:09:49.551Z,73.20
2023-03-27T06:10:53.049Z,72.43
2023-03-27T06:11:54.951Z,72.25
2023-03-27T06:14:11.267Z,71.54
2023-03-27T06:15:14.445Z,71.41
2023-03-27T06:16:16.814Z,71.35
2023-03-27T06:17:18.933Z,72.06
2023-03-27T06:18:23.374Z,74.12
2023-03-27T06:19:25.300Z,72.80
2023-03-27T06:20:32.502Z,73.01
2023-03-27T06:21:37.398Z,71.63
2023-03-27T06:22:54.092Z,71.08
2023-03-27T06:23:55.999Z,71.61
2023-03-27T06:24:57.868Z,70.80
2023-03-27T06:26:02.749Z,71.29
2023-03-27T06:27:04.640Z,71.50
2023-03-27T06:28:07.756Z,70.14
2023-03-27T06:29:09.836Z,70.13
2023-03-27T06:30:13.596Z,71.48
2023-03-27T06:31:16.647Z,72.24
2023-03-27T06:32:18.818Z,71.47
2023-03-27T06:33:21.252Z,71.54
2023-03-27T06:34:24.682Z,72.85
2023-03-27T06:35:29.880Z,73.01
2023-03-27T06:36:31.954Z,72.45
2023-03-27T06:37:33.854Z,72.37
2023-03-27T06:38:35.720Z,72.85
2023-03-27T06:39:37.663Z,72.11
2023-03-27T06:40:40.446Z,70.49
2023-03-27T06:41:42.528Z,70.37
2023-03-27T06:43:00.037Z,69.06
2023-03-27T06:44:01.951Z,69.42
2023-03-27T06:45:06.563Z,68.43
2023-03-27T06:46:08.594Z,69.24
2023-03-27T06:47:11.399Z,67.91
2023-03-27T06:48:21.488Z,66.80
2023-03-27T06:49:19.410Z,66.33
2023-03-27T06:50:22.793Z,66.46
2023-03-27T06:51:24.868Z,65.93
2023-03-27T06:52:26.920Z,66.58
2023-03-27T06:53:33.186Z,67.18
2023-03-27T06:54:34.130Z,67.45
2023-03-27T06:55:35.981Z,66.13
2023-03-27T06:56:38.129Z,67.42
2023-03-27T06:58:56.668Z,66.97
2023-03-27T07:00:00.870Z,67.30
2023-03-27T07:01:02.301Z,68.76
2023-03-27T07:02:09.158Z,68.43
2023-03-27T07:03:11.534Z,67.32
2023-03-27T07:04:15.922Z,67.37
2023-03-27T07:05:17.843Z,67.41
2023-03-27T07:06:20.753Z,66.87
2023-03-27T07:07:24.748Z,66.41
2023-03-27T07:08:27.956Z,66.64
2023-03-27T07:09:30.692Z,65.60
2023-03-27T07:10:35.566Z,66.27
2023-03-27T07:11:37.485Z,65.70
2023-03-27T07:12:39.688Z,65.69
2023-03-27T07:13:41.968Z,65.54
2023-03-27T07:14:43.841Z,64.20
2023-03-27T07:15:45.717Z,64.92
2023-03-27T07:16:48.624Z,64.63
2023-03-27T07:18:02.786Z,63.38
2023-03-27T07:19:05.072Z,62.38
2023-03-27T07:20:09.282Z,61.92
2023-03-27T07:21:11.411Z,61.04
2023-03-27T07:22:13.400Z,60.61
2023-03-27T07:23:15.465Z,61.18
2023-03-27T07:24:17.373Z,63.54
2023-03-27T07:25:19.253Z,63.54
2023-03-27T07:26:21.546Z,63.68
2023-03-27T07:27:25.822Z,63.20
2023-03-27T07:28:27.993Z,62.57
2023-03-27T07:29:29.871Z,62.20
2023-03-27T07:30:35.638Z,63.19
2023-03-27T07:32:42.183Z,63.54
2023-03-27T07:33:44.311Z,63.83
2023-03-27T07:34:46.427Z,62.48
2023-03-27T07:35:52.751Z,63.20
2023-03-27T07:36:55.268Z,62.16
2023-03-27T07:37:58.157Z,60.80
2023-03-27T07:39:03.323Z,60.03
2023-03-27T07:40:08.327Z,59.99
2023-03-27T07:41:10.273Z,59.08
2023-03-27T07:42:14.396Z,58.36
2023-03-27T07:43:16.714Z,59.95
2023-03-27T07:44:19.279Z,60.37
2023-03-27T07:45:22.396Z,59.32
2023-03-27T07:46:24.777Z,59.96
2023-03-27T07:47:26.911Z,60.52
2023-03-27T07:48:28.820Z,59.71
2023-03-27T07:49:39.861Z,61.17
2023-03-27T07:50:36.515Z,61.66
2023-03-27T07:51:38.900Z,60.60
2023-03-27T07:52:41.928Z,60.81
2023-03-27T07:53:44.738Z,61.24
2023-03-27T07:54:47.829Z,60.33
2023-03-27T07:55:50.737Z,58.26
2023-03-27T07:56:53.029Z,60.18
2023-03-27T07:58:01.573Z,60.64
2023-03-27T07:58:59.842Z,60.25
2023-03-27T08:00:03.308Z,60.13
2023-03-27T08:01:05.310Z,59.35
2023-03-27T08:02:09.986Z,60.12
2023-03-27T08:03:14.880Z,59.22
2023-03-27T08:04:17.488Z,59.44
2023-03-27T08:05:20.239Z,59.52
2023-03-27T08:06:23.598Z,59.78
2023-03-27T08:07:25.479Z,60.18
2023-03-27T08:08:29.891Z,61.00
2023-03-27T08:09:31.833Z,59.78
2023-03-27T08:10:33.895Z,58.69
2023-03-27T08:11:36.768Z,57.42
2023-03-27T08:12:39.136Z,56.59
2023-03-27T08:13:41.357Z,56.34
2023-03-27T08:14:43.270Z,57.99
2023-03-27T08:15:45.708Z,57.29
2023-03-27T08:16:47.855Z,56.32
2023-03-27T08:17:50.238Z,55.97
2023-03-27T08:18:53.767Z,55.61
2023-03-27T08:19:57.300Z,56.27
2023-03-27T08:21:01.079Z,55.80
2023-03-27T08:22:04.516Z,55.99
2023-03-27T08:23:06.592Z,54.70
2023-03-27T08:24:08.578Z,55.11
2023-03-27T08:25:11.491Z,54.75
2023-03-27T08:26:13.699Z,55.62
2023-03-27T08:27:16.458Z,54.88
2023-03-27T08:28:19.166Z,55.37
2023-03-27T08:29:25.541Z,54.88
2023-03-27T08:30:27.839Z,55.18
2023-03-27T08:31:29.975Z,54.97
2023-03-27T08:32:32.059Z,56.47
2023-03-27T08:33:37.375Z,56.59
2023-03-27T08:34:39.356Z,56.06
2023-03-27T08:35:41.264Z,55.67
2023-03-27T08:36:43.520Z,55.49
2023-03-27T08:37:45.524Z,55.01
2023-03-27T08:38:47.708Z,54.78
2023-03-27T08:39:50.814Z,54.85
2023-03-27T08:40:55.698Z,55.42
2023-03-27T08:42:00.077Z,54.90
2023-03-27T08:43:05.821Z,55.11
2023-03-27T08:44:13.936Z,55.04
2023-03-27T08:45:21.972Z,54.86
2023-03-27T08:46:31.030Z,53.70
2023-03-27T08:47:42.784Z,55.94
2023-03-27T08:48:54.424Z,55.75
2023-03-27T08:49:59.997Z,55.37
2023-03-27T08:51:08.484Z,54.83
2023-03-27T08:52:23.506Z,55.50
2023-03-27T08:53:38.906Z,55.35
2023-03-27T08:54:45.166Z,54.84
2023-03-27T08:55:47.873Z,55.71
2023-03-27T08:56:51.940Z,55.70
2023-03-27T08:57:55.152Z,55.74
2023-03-27T08:58:58.338Z,56.39
2023-03-27T09:00:01.248Z,55.96
2023-03-27T09:01:09.929Z,57.08
2023-03-27T09:02:52.225Z,55.42
2023-03-27T09:04:05.560Z,54.60
2023-03-27T09:05:23.362Z,56.25
2023-03-27T09:06:39.099Z,57.53
2023-03-27T09:07:51.369Z,57.85
2023-03-27T09:09:17.004Z,57.58
2023-03-27T09:10:26.327Z,58.11
2023-03-27T09:11:38.005Z,59.08
2023-03-27T09:12:56.180Z,58.12
2023-03-27T09:14:00.566Z,59.11
2023-03-27T09:15:12.517Z,58.69
2023-03-27T09:16:36.696Z,58.01
2023-03-27T09:17:42.804Z,57.68
2023-03-27T09:20:18.473Z,58.37
2023-03-27T09:21:44.370Z,59.09
2023-03-27T09:22:59.264Z,58.65
2023-03-27T09:24:07.350Z,58.86
2023-03-27T09:25:25.143Z,57.14
2023-03-27T09:26:31.962Z,56.49
2023-03-27T09:27:36.400Z,57.32
2023-03-27T09:28:42.695Z,57.36
2023-03-27T09:29:46.918Z,57.12
2023-03-27T09:30:49.236Z,57.68
2023-03-27T09:31:54.163Z,58.53
2023-03-27T09:33:01.099Z,57.40
2023-03-27T09:34:09.235Z,57.68
2023-03-27T09:35:15.362Z,57.57
2023-03-27T09:36:19.853Z,57.74
2023-03-27T09:37:24.950Z,57.57
2023-03-27T09:38:37.369Z,57.04
2023-03-27T09:39:43.075Z,57.09
2023-03-27T09:40:55.044Z,57.03
2023-03-27T09:42:00.539Z,56.92
2023-03-27T09:43:10.853Z,56.40
2023-03-27T09:44:16.517Z,56.78
2023-03-27T09:45:20.225Z,57.97
2023-03-27T09:46:26.641Z,58.65
2023-03-27T09:47:38.249Z,57.55
2023-03-27T09:48:47.211Z,56.73
2023-03-27T09:49:56.691Z,55.77
2023-03-27T09:50:59.128Z,54.00
2023-03-27T09:52:01.270Z,54.78
2023-03-27T09:53:10.851Z,55.13
2023-03-27T09:54:16.049Z,55.13
2023-03-27T09:55:30.955Z,54.17
2023-03-27T09:56:43.236Z,53.58
2023-03-27T09:57:45.729Z,53.19
2023-03-27T09:58:48.672Z,52.00
2023-03-27T09:59:59.244Z,52.91
2023-03-27T10:01:11.018Z,51.80
2023-03-27T10:02:19.739Z,52.72
2023-03-27T10:03:22.024Z,52.66
2023-03-27T10:04:28.178Z,53.33
2023-03-27T10:05:31.306Z,53.53
2023-03-27T10:06:39.824Z,53.54
2023-03-27T10:07:44.020Z,53.17
2023-03-27T10:08:47.816Z,51.67
2023-03-27T10:09:59.212Z,51.12
2023-03-27T10:11:05.103Z,51.68
2023-03-27T10:12:11.599Z,51.50
2023-03-27T10:13:14.846Z,52.03
2023-03-27T10:14:21.852Z,52.03
2023-03-27T10:15:37.430Z,52.43
2023-03-27T10:16:42.542Z,52.22
2023-03-27T10:17:47.738Z,51.44
2023-03-27T10:18:55.053Z,51.84
2023-03-27T10:20:00.843Z,51.02
2023-03-27T10:21:08.666Z,50.25
2023-03-27T10:22:20.150Z,50.13
2023-03-27T10:23:41.174Z,50.25
2023-03-27T10:24:47.157Z,51.45
2023-03-27T10:25:53.313Z,52.07
2023-03-27T10:26:58.449Z,52.08
2023-03-27T10:28:23.663Z,53.11
2023-03-27T10:29:31.602Z,52.78
2023-03-27T10:30:35.742Z,52.89
2023-03-27T10:31:39.950Z,52.80
2023-03-27T10:33:59.847Z,52.91
2023-03-27T10:35:01.949Z,52.22
2023-03-27T10:36:07.760Z,51.81
2023-03-27T10:37:33.504Z,50.92
2023-03-27T10:38:40.145Z,50.78
2023-03-27T10:39:44.041Z,51.09
2023-03-27T10:40:48.998Z,50.81
2023-03-27T10:41:52.903Z,50.85
2023-03-27T10:43:06.724Z,51.03
2023-03-27T10:44:15.147Z,50.69
2023-03-27T10:45:20.536Z,51.16
2023-03-27T10:46:26.553Z,50.45
2023-03-27T10:47:33.416Z,51.02
2023-03-27T10:48:48.508Z,51.50
2023-03-27T10:49:56.919Z,51.54
2023-03-27T10:51:02.700Z,51.32
2023-03-27T10:52:23.412Z,50.89
2023-03-27T10:53:38.365Z,50.97
2023-03-27T10:54:46.946Z,51.04
2023-03-27T10:56:16.137Z,50.68
2023-03-27T10:57:21.907Z,50.72
2023-03-27T10:58:27.606Z,50.96
2023-03-27T11:00:01.799Z,51.23
2023-03-27T11:01:16.063Z,51.49
2023-03-27T11:02:28.040Z,51.02
2023-03-27T11:03:35.060Z,50.58
2023-03-27T11:04:52.449Z,51.11
2023-03-27T11:05:55.382Z,51.66
2023-03-27T11:07:00.922Z,51.54
2023-03-27T11:08:10.756Z,51.06
2023-03-27T11:09:16.529Z,50.78
2023-03-27T11:10:31.904Z,50.62
2023-03-27T11:11:40.248Z,51.04
2023-03-27T11:12:46.884Z,50.00
2023-03-27T11:13:49.163Z,50.44
2023-03-27T11:16:29.892Z,49.82
2023-03-27T11:17:47.801Z,49.92
2023-03-27T11:18:59.569Z,49.17
2023-03-27T11:20:05.604Z,50.23
2023-03-27T11:21:10.920Z,49.95
2023-03-27T11:22:28.710Z,50.10
2023-03-27T11:23:43.250Z,50.86
2023-03-27T11:24:51.917Z,50.48
2023-03-27T11:27:23.852Z,50.21
2023-03-27T11:28:57.312Z,50.34
2023-03-27T11:30:03.433Z,50.06
2023-03-27T11:31:39.622Z,49.86
2023-03-27T11:32:57.958Z,50.07
2023-03-27T11:34:28.896Z,50.23
2023-03-27T11:35:25.191Z,50.10
2023-03-27T11:36:40.122Z,50.81
2023-03-27T11:37:54.944Z,50.70
2023-03-27T11:39:17.384Z,50.64
2023-03-27T11:40:38.651Z,50.86
2023-03-27T11:41:43.272Z,51.26
2023-03-27T11:42:46.773Z,50.83
2023-03-27T11:43:49.612Z,51.06
2023-03-27T11:44:53.296Z,51.14
2023-03-27T11:45:59.746Z,50.95
2023-03-27T11:47:32.232Z,50.99
2023-03-27T11:48:51.062Z,50.71
2023-03-27T11:50:30.349Z,50.90
2023-03-27T11:51:55.977Z,50.99
2023-03-27T11:53:07.341Z,51.04
2023-03-27T11:54:16.923Z,51.11
2023-03-27T11:55:34.884Z,51.24
2023-03-27T11:56:52.468Z,51.41
2023-03-27T11:58:16.562Z,51.50
2023-03-27T11:59:42.114Z,51.24
2023-03-27T12:01:07.308Z,51.23
2023-03-27T12:02:42.370Z,51.34
2023-03-27T12:04:17.034Z,50.71
2023-03-27T12:05:22.917Z,51.29
2023-03-27T12:06:50.588Z,51.51
2023-03-27T12:08:10.881Z,50.37
2023-03-27T12:10:34.265Z,50.27
2023-03-27T12:11:41.131Z,50.08
2023-03-27T12:13:19.027Z,50.07
2023-03-27T12:14:40.106Z,49.59
2023-03-27T12:15:40.302Z,49.75
2023-03-27T12:17:01.114Z,49.61
2023-03-27T12:18:09.982Z,49.68
2023-03-27T12:20:53.719Z,49.95
2023-03-27T12:22:27.135Z,50.28
2023-03-27T12:23:44.538Z,51.05
2023-03-27T12:25:18.023Z,51.42
2023-03-27T12:26:36.244Z,51.36
2023-03-27T12:27:51.369Z,51.28
2023-03-27T12:29:02.708Z,50.21
2023-03-27T12:30:26.030Z,50.32
2023-03-27T12:31:50.161Z,49.77
2023-03-27T12:33:08.367Z,49.66
2023-03-27T12:34:23.500Z,49.01
2023-03-27T12:35:31.830Z,49.07
2023-03-27T12:36:37.571Z,49.33
2023-03-27T12:37:43.225Z,48.86
2023-03-27T12:38:45.995Z,49.14
2023-03-27T12:39:54.091Z,49.38
2023-03-27T12:41:03.236Z,49.28
2023-03-27T12:42:18.366Z,49.80
2023-03-27T12:43:33.094Z,49.51
2023-03-27T12:44:38.814Z,49.76
2023-03-27T12:45:51.094Z,49.05
2023-03-27T12:47:09.135Z,48.61
2023-03-27T12:48:17.738Z,48.56
2023-03-27T12:49:25.976Z,48.09
2023-03-27T12:50:32.563Z,48.25
2023-03-27T12:51:44.186Z,48.41
2023-03-27T12:52:46.268Z,48.59
2023-03-27T12:53:53.110Z,48.28
2023-03-27T12:55:14.167Z,48.21
2023-03-27T12:56:20.821Z,47.86
2023-03-27T12:57:23.309Z,47.72
2023-03-27T12:58:34.009Z,47.71
2023-03-27T12:59:40.024Z,47.54
2023-03-27T13:00:45.776Z,47.55
2023-03-27T13:02:06.695Z,47.92
2023-03-27T13:03:33.488Z,47.73
2023-03-27T13:04:51.246Z,47.96
2023-03-27T13:06:16.009Z,48.25
2023-03-27T13:07:39.260Z,48.24
2023-03-27T13:08:48.096Z,48.11
2023-03-27T13:09:54.180Z,48.38
2023-03-27T13:11:16.907Z,48.30
2023-03-27T13:12:40.274Z,48.22
2023-03-27T13:14:16.357Z,48.43
2023-03-27T13:15:22.230Z,48.90
2023-03-27T13:16:52.258Z,48.57
2023-03-27T13:18:04.032Z,49.05
2023-03-27T13:19:29.566Z,48.73
2023-03-27T13:20:48.229Z,48.61
2023-03-27T13:22:12.073Z,48.58
2023-03-27T13:23:36.275Z,48.61
2023-03-27T13:24:47.553Z,48.01
2023-03-27T13:26:11.592Z,48.04
2023-03-27T13:27:24.212Z,47.18
2023-03-27T13:28:35.819Z,47.43
2023-03-27T13:29:38.239Z,47.94
2023-03-27T13:30:52.527Z,47.18
2023-03-27T13:31:58.648Z,46.65
2023-03-27T13:33:16.323Z,46.70
2023-03-27T13:34:34.242Z,46.65
2023-03-27T13:37:07.309Z,47.14
2023-03-27T13:38:12.621Z,47.23
2023-03-27T13:39:20.095Z,47.62
2023-03-27T13:40:25.823Z,47.84
2023-03-27T13:41:45.200Z,47.76
2023-03-27T13:42:54.011Z,47.85
2023-03-27T13:43:59.404Z,47.98
2023-03-27T13:45:08.106Z,48.23
2023-03-27T13:46:13.084Z,48.40
2023-03-27T13:49:08.532Z,48.03
2023-03-27T13:50:27.791Z,48.06
2023-03-27T13:53:07.981Z,47.63
2023-03-27T13:54:33.729Z,47.73
2023-03-27T13:57:44.092Z,48.57
2023-03-27T13:59:12.777Z,48.21
2023-03-27T14:00:31.307Z,48.53
2023-03-27T14:01:49.031Z,48.63
2023-03-27T14:03:05.407Z,48.17
2023-03-27T14:04:29.816Z,48.36
2023-03-27T14:05:47.802Z,48.10
2023-03-27T14:07:11.518Z,48.21
2023-03-27T14:08:46.212Z,48.58
2023-03-27T14:10:01.177Z,48.53
2023-03-27T14:11:16.654Z,48.05
2023-03-27T14:12:31.317Z,48.12
2023-03-27T14:14:07.917Z,48.04
2023-03-27T14:16:56.542Z,48.46
2023-03-27T14:18:26.475Z,48.53
2023-03-27T14:19:49.093Z,48.25
2023-03-27T14:21:01.761Z,48.32
2023-03-27T14:22:08.608Z,48.26
2023-03-27T14:23:17.091Z,48.58
2023-03-27T14:24:35.076Z,48.73
2023-03-27T14:25:41.614Z,49.01
2023-03-27T14:26:45.250Z,49.24
2023-03-27T14:27:54.147Z,48.97
2023-03-27T14:28:59.133Z,49.30
2023-03-27T14:31:20.853Z,49.63
2023-03-27T14:32:23.755Z,49.81
2023-03-27T14:33:27.426Z,49.80
2023-03-27T14:34:33.293Z,49.82
2023-03-27T14:36:46.570Z,50.25
2023-03-27T14:37:54.819Z,50.69
2023-03-27T14:39:15.419Z,50.47
2023-03-27T14:40:21.523Z,50.43
2023-03-27T14:41:23.515Z,50.38
2023-03-27T14:42:32.840Z,50.71
2023-03-27T14:43:34.744Z,50.59
2023-03-27T14:44:36.619Z,50.83
2023-03-27T14:45:40.531Z,51.12
2023-03-27T14:46:44.630Z,51.30
2023-03-27T14:49:06.757Z,50.75
2023-03-27T14:50:13.149Z,50.55
2023-03-27T14:51:18.613Z,50.52
2023-03-27T14:52:27.013Z,50.66
2023-03-27T14:53:32.668Z,51.03
2023-03-27T14:54:48.512Z,51.21
2023-03-27T14:55:41.729Z,51.47
2023-03-27T14:56:45.276Z,52.04
2023-03-27T14:57:51.370Z,52.65
2023-03-27T14:58:56.997Z,52.73
2023-03-27T15:00:01.644Z,52.30
2023-03-27T15:01:07.028Z,52.18
2023-03-27T15:02:32.049Z,51.67
2023-03-27T15:03:37.861Z,51.78
2023-03-27T15:04:40.210Z,51.96
2023-03-27T15:06:02.583Z,52.24
2023-03-27T15:07:17.613Z,52.59
2023-03-27T15:08:20.210Z,52.55
2023-03-27T15:09:22.067Z,52.93
2023-03-27T15:10:27.483Z,52.75